createdAt,value
2022-08-08T00:02:04.069Z,102477.78
2022-08-08T00:04:49.181Z,102476.97
2022-08-08T00:07:28.555Z,102469.16
2022-08-08T00:10:13.405Z,102467.16
2022-08-08T00:14:15.211Z,102466.25
2022-08-08T00:16:16.532Z,102465.91
2022-08-08T00:18:55.021Z,102471.53
2022-08-08T00:21:39.538Z,102474.44
2022-08-08T00:24:35.728Z,102480.09
2022-08-08T00:27:07.747Z,102478.63
2022-08-08T00:29:44.883Z,102473.53
2022-08-08T00:32:38.406Z,102473.53
2022-08-08T00:35:22.650Z,102478.13
2022-08-08T00:38:44.336Z,102470.81
2022-08-08T00:42:08.409Z,102482.13
2022-08-08T00:45:20.852Z,102469.44
2022-08-08T00:48:29.946Z,102484.13
2022-08-08T00:51:09.909Z,102483.66
2022-08-08T00:54:15.563Z,102484.94
2022-08-08T00:57:29.551Z,102485.94
2022-08-08T01:00:06.458Z,102491.44
2022-08-08T01:03:59.070Z,102491.91
2022-08-08T01:06:13.145Z,102474.59
2022-08-08T01:09:36.373Z,102474.00
2022-08-08T01:12:25.627Z,102480.94
2022-08-08T01:15:43.859Z,102485.81
2022-08-08T01:18:25.003Z,102478.34
2022-08-08T01:22:13.348Z,102480.63
2022-08-08T01:24:34.387Z,102475.84
2022-08-08T01:27:32.716Z,102477.69
2022-08-08T01:30:22.641Z,102477.44
2022-08-08T01:33:27.535Z,102481.28
2022-08-08T01:36:27.212Z,102466.72
2022-08-08T01:39:35.058Z,102475.53
2022-08-08T01:42:20.152Z,102472.47
2022-08-08T01:45:27.486Z,102471.78
2022-08-08T01:48:30.793Z,102469.13
2022-08-08T01:51:31.863Z,102464.53
2022-08-08T01:55:16.306Z,102475.97
2022-08-08T01:57:08.440Z,102471.34
2022-08-08T02:00:05.098Z,102472.78
2022-08-08T02:03:57.052Z,102470.56
2022-08-08T02:06:31.592Z,102478.91
2022-08-08T02:09:16.080Z,102475.19
2022-08-08T02:11:59.991Z,102473.19
2022-08-08T02:14:49.762Z,102480.72
2022-08-08T02:17:42.646Z,102486.31
2022-08-08T02:21:13.161Z,102480.09
2022-08-08T02:24:16.208Z,102480.53
2022-08-08T02:27:01.065Z,102486.44
2022-08-08T02:29:57.277Z,102488.13
2022-08-08T02:32:52.329Z,102488.63
2022-08-08T02:35:19.630Z,102492.84
2022-08-08T02:38:09.154Z,102481.63
2022-08-08T02:40:50.080Z,102482.03
2022-08-08T02:44:42.296Z,102481.91
2022-08-08T02:46:54.822Z,102479.81
2022-08-08T02:49:48.154Z,102481.63
2022-08-08T02:52:39.841Z,102477.13
2022-08-08T02:55:47.248Z,102483.81
2022-08-08T02:58:44.552Z,102485.63
2022-08-08T03:01:16.053Z,102489.25
2022-08-08T03:05:04.758Z,102489.75
2022-08-08T03:07:24.329Z,102491.84
2022-08-08T03:10:33.672Z,102493.22
2022-08-08T03:15:56.636Z,102491.81
2022-08-08T03:16:35.756Z,102492.19
2022-08-08T03:19:51.225Z,102497.47
2022-08-08T03:22:38.133Z,102494.06
2022-08-08T03:25:18.013Z,102499.28
2022-08-08T03:27:59.784Z,102489.81
2022-08-08T03:30:32.142Z,102499.28
2022-08-08T03:33:58.137Z,102492.63
2022-08-08T03:36:13.836Z,102498.56
2022-08-08T03:38:55.007Z,102493.81
2022-08-08T03:42:12.592Z,102500.25
2022-08-08T03:44:32.607Z,102502.25
2022-08-08T03:47:14.322Z,102499.13
2022-08-08T03:50:00.513Z,102503.41
2022-08-08T03:52:33.748Z,102505.38
2022-08-08T03:55:10.290Z,102505.84
2022-08-08T03:58:30.987Z,102505.59
2022-08-08T04:00:30.463Z,102513.31
2022-08-08T04:03:11.810Z,102505.22
2022-08-08T04:05:49.915Z,102509.22
2022-08-08T04:08:33.860Z,102504.00
2022-08-08T04:11:23.607Z,102508.38
2022-08-08T04:14:03.338Z,102513.50
2022-08-08T04:16:41.726Z,102515.41
2022-08-08T04:19:25.070Z,102515.81
2022-08-08T04:21:58.270Z,102522.13
2022-08-08T04:24:29.705Z,102521.19
2022-08-08T04:27:01.091Z,102512.56
2022-08-08T04:29:37.012Z,102515.06
2022-08-08T04:32:08.209Z,102510.72
2022-08-08T04:34:55.971Z,102516.69
2022-08-08T04:37:32.244Z,102518.16
2022-08-08T04:40:07.801Z,102519.31
2022-08-08T04:42:55.856Z,102520.03
2022-08-08T04:45:27.092Z,102516.59
2022-08-08T04:47:58.673Z,102512.97
2022-08-08T04:50:37.958Z,102515.56
2022-08-08T04:53:14.268Z,102511.16
2022-08-08T04:55:58.552Z,102513.25
2022-08-08T04:58:30.313Z,102517.69
2022-08-08T05:00:57.914Z,102511.72
2022-08-08T05:04:11.360Z,102516.72
2022-08-08T05:06:18.169Z,102522.81
2022-08-08T05:08:51.575Z,102529.53
2022-08-08T05:11:23.992Z,102530.84
2022-08-08T05:14:00.922Z,102518.31
2022-08-08T05:16:54.213Z,102524.06
2022-08-08T05:20:10.355Z,102522.97
2022-08-08T05:22:08.728Z,102540.84
2022-08-08T05:24:41.435Z,102533.50
2022-08-08T05:27:18.381Z,102537.19
2022-08-08T05:29:50.383Z,102535.56
2022-08-08T05:32:24.699Z,102538.97
2022-08-08T05:35:04.581Z,102537.63
2022-08-08T05:37:52.048Z,102549.25
2022-08-08T05:40:28.243Z,102546.47
2022-08-08T05:43:38.415Z,102543.94
2022-08-08T05:46:04.007Z,102544.47
2022-08-08T05:48:38.840Z,102549.66
2022-08-08T05:51:14.689Z,102542.34
2022-08-08T05:54:24.857Z,102547.44
2022-08-08T05:56:42.407Z,102547.66
2022-08-08T05:59:58.801Z,102548.47
2022-08-08T06:02:43.616Z,102545.06
2022-08-08T06:05:35.738Z,102551.06
2022-08-08T06:08:09.547Z,102557.66
2022-08-08T06:10:39.448Z,102552.06
2022-08-08T06:13:09.328Z,102551.81
2022-08-08T06:15:53.705Z,102551.28
2022-08-08T06:18:45.039Z,102556.56
2022-08-08T06:21:28.115Z,102556.03
2022-08-08T06:24:02.624Z,102558.19
2022-08-08T06:26:50.626Z,102557.63
2022-08-08T06:29:59.322Z,102556.09
2022-08-08T06:32:25.225Z,102557.00
2022-08-08T06:35:11.832Z,102564.34
2022-08-08T06:37:55.713Z,102570.03
2022-08-08T06:40:32.021Z,102567.06
2022-08-08T06:43:06.381Z,102574.75
2022-08-08T06:45:43.779Z,102580.22
2022-08-08T06:48:10.666Z,102569.91
2022-08-08T06:50:41.567Z,102582.63
2022-08-08T06:53:17.329Z,102572.59
2022-08-08T06:56:02.836Z,102574.31
2022-08-08T06:58:35.650Z,102582.31
2022-08-08T07:01:52.604Z,102569.09
2022-08-08T07:04:39.077Z,102569.31
2022-08-08T07:07:10.555Z,102573.16
2022-08-08T07:10:08.369Z,102569.56
2022-08-08T07:13:06.403Z,102567.09
2022-08-08T07:16:06.262Z,102575.44
2022-08-08T07:18:57.442Z,102580.03
2022-08-08T07:21:32.996Z,102574.16
2022-08-08T07:24:09.527Z,102580.66
2022-08-08T07:26:54.005Z,102575.75
2022-08-08T07:30:00.494Z,102584.59
2022-08-08T07:32:16.946Z,102584.34
2022-08-08T07:34:59.245Z,102594.41
2022-08-08T07:37:49.675Z,102590.13
2022-08-08T07:40:28.981Z,102593.38
2022-08-08T07:43:04.027Z,102589.94
2022-08-08T07:46:05.240Z,102599.13
2022-08-08T07:48:23.894Z,102601.44
2022-08-08T07:50:53.874Z,102595.66
2022-08-08T07:54:01.358Z,102601.31
2022-08-08T07:56:17.564Z,102602.91
2022-08-08T07:59:10.337Z,102604.47
2022-08-08T08:02:36.536Z,102601.91
2022-08-08T08:04:46.693Z,102599.94
2022-08-08T08:07:18.296Z,102603.47
2022-08-08T08:09:49.968Z,102606.56
2022-08-08T08:12:31.728Z,102607.59
2022-08-08T08:15:07.321Z,102605.44
2022-08-08T08:17:55.740Z,102612.38
2022-08-08T08:20:29.744Z,102610.31
2022-08-08T08:22:58.581Z,102614.69
2022-08-08T08:25:43.720Z,102614.69
2022-08-08T08:28:17.049Z,102623.63
2022-08-08T08:30:56.701Z,102621.34
2022-08-08T08:33:26.360Z,102620.81
2022-08-08T08:36:18.917Z,102616.78
2022-08-08T08:38:49.636Z,102619.94
2022-08-08T08:41:22.447Z,102626.31
2022-08-08T08:43:53.059Z,102625.50
2022-08-08T08:46:41.296Z,102620.16
2022-08-08T08:49:14.777Z,102623.53
2022-08-08T08:51:51.495Z,102632.63
2022-08-08T08:54:25.396Z,102629.09
2022-08-08T08:56:55.649Z,102633.25
2022-08-08T08:59:57.548Z,102631.59
2022-08-08T09:02:20.702Z,102630.69
2022-08-08T09:04:55.250Z,102633.25
2022-08-08T09:07:39.257Z,102636.06
2022-08-08T09:10:17.509Z,102643.78
2022-08-08T09:12:47.574Z,102641.47
2022-08-08T09:15:18.643Z,102632.00
2022-08-08T09:18:07.367Z,102638.56
2022-08-08T09:22:01.479Z,102633.03
2022-08-08T09:23:33.326Z,102649.94
2022-08-08T09:26:24.788Z,102647.75
2022-08-08T09:28:57.969Z,102645.00
2022-08-08T09:31:57.570Z,102642.91
2022-08-08T09:34:39.225Z,102657.13
2022-08-08T09:37:58.508Z,102642.34
2022-08-08T09:40:11.161Z,102653.47
2022-08-08T09:42:44.150Z,102648.06
2022-08-08T09:45:55.217Z,102647.41
2022-08-08T09:48:16.062Z,102648.06
2022-08-08T09:50:50.783Z,102644.19
2022-08-08T09:53:24.973Z,102648.50
2022-08-08T09:56:12.565Z,102648.56
2022-08-08T09:59:32.017Z,102647.72
2022-08-08T10:01:59.650Z,102651.81
2022-08-08T10:04:38.325Z,102659.25
2022-08-08T10:07:13.930Z,102646.34
2022-08-08T10:09:59.578Z,102647.06
2022-08-08T10:12:53.882Z,102632.75
2022-08-08T10:15:35.999Z,102635.34
2022-08-08T10:18:10.499Z,102641.88
2022-08-08T10:20:58.303Z,102644.38
2022-08-08T10:23:57.890Z,102631.03
2022-08-08T10:26:59.142Z,102637.88
2022-08-08T10:29:56.708Z,102648.56
2022-08-08T10:32:57.530Z,102644.78
2022-08-08T10:36:09.338Z,102630.25
2022-08-08T10:38:20.318Z,102633.34
2022-08-08T10:40:52.087Z,102643.59
2022-08-08T10:43:20.901Z,102639.81
2022-08-08T10:45:56.881Z,102639.50
2022-08-08T10:48:57.912Z,102640.47
2022-08-08T10:51:31.387Z,102636.63
2022-08-08T10:54:07.733Z,102643.88
2022-08-08T10:56:35.810Z,102644.47
2022-08-08T10:59:12.261Z,102644.50
2022-08-08T11:01:49.485Z,102640.47
2022-08-08T11:04:39.277Z,102643.41
2022-08-08T11:07:07.080Z,102654.19
2022-08-08T11:09:34.896Z,102643.94
2022-08-08T11:12:13.170Z,102643.75
2022-08-08T11:14:57.084Z,102655.09
2022-08-08T11:17:58.779Z,102645.81
2022-08-08T11:20:23.699Z,102650.94
2022-08-08T11:23:05.793Z,102656.56
2022-08-08T11:25:53.481Z,102651.72
2022-08-08T11:28:30.785Z,102661.44
2022-08-08T11:31:04.012Z,102659.59
2022-08-08T11:33:51.219Z,102663.91
2022-08-08T11:36:20.582Z,102662.00
2022-08-08T11:38:54.213Z,102646.84
2022-08-08T11:41:27.686Z,102652.13
2022-08-08T11:44:00.524Z,102655.06
2022-08-08T11:46:31.400Z,102658.53
2022-08-08T11:49:00.349Z,102657.25
2022-08-08T11:51:30.268Z,102650.72
2022-08-08T11:54:26.823Z,102649.41
2022-08-08T11:56:56.642Z,102641.91
2022-08-08T11:59:58.580Z,102651.34
2022-08-08T12:02:40.189Z,102644.84
2022-08-08T12:05:12.440Z,102630.38
2022-08-08T12:07:52.283Z,102637.88
2022-08-08T12:10:27.462Z,102633.81
2022-08-08T12:13:01.548Z,102633.94
2022-08-08T12:15:49.289Z,102635.00
2022-08-08T12:18:24.681Z,102627.25
2022-08-08T12:20:58.882Z,102631.56
2022-08-08T12:23:43.948Z,102630.09
2022-08-08T12:26:36.911Z,102627.63
2022-08-08T12:29:40.817Z,102638.41
2022-08-08T12:32:13.274Z,102622.28
2022-08-08T12:34:48.761Z,102628.09
2022-08-08T12:37:25.916Z,102625.06
2022-08-08T12:40:22.423Z,102618.00
2022-08-08T12:42:52.218Z,102620.66
2022-08-08T12:45:54.722Z,102621.47
2022-08-08T12:48:37.574Z,102625.88
2022-08-08T12:51:07.690Z,102628.44
2022-08-08T12:54:01.539Z,102622.19
2022-08-08T12:56:38.395Z,102618.09
2022-08-08T12:59:16.979Z,102628.19
2022-08-08T13:02:20.960Z,102623.06
2022-08-08T13:04:51.194Z,102628.34
2022-08-08T13:08:03.710Z,102637.50
2022-08-08T13:10:15.035Z,102633.75
2022-08-08T13:12:48.249Z,102631.56
2022-08-08T13:15:19.598Z,102632.22
2022-08-08T13:18:07.554Z,102625.78
2022-08-08T13:20:44.672Z,102622.34
2022-08-08T13:23:36.524Z,102640.09
2022-08-08T13:26:14.795Z,102628.94
2022-08-08T13:28:45.479Z,102626.09
2022-08-08T13:31:16.564Z,102629.63
2022-08-08T13:33:47.385Z,102630.38
2022-08-08T13:36:25.691Z,102624.06
2022-08-08T13:38:54.153Z,102631.91
2022-08-08T13:41:22.379Z,102630.28
2022-08-08T13:43:50.966Z,102629.34
2022-08-08T13:46:26.318Z,102629.03
2022-08-08T13:50:32.187Z,102629.63
2022-08-08T13:52:06.224Z,102638.47
2022-08-08T13:54:43.978Z,102632.53
2022-08-08T13:57:16.536Z,102643.47
2022-08-08T13:59:49.183Z,102637.53
2022-08-08T14:02:33.140Z,102637.53
2022-08-08T14:05:20.400Z,102636.84
2022-08-08T14:07:53.210Z,102648.13
2022-08-08T14:10:33.450Z,102648.66
2022-08-08T14:13:09.857Z,102638.09
2022-08-08T14:15:39.782Z,102641.31
2022-08-08T14:18:36.267Z,102640.06
2022-08-08T14:21:12.567Z,102650.34
2022-08-08T14:24:06.944Z,102653.66
2022-08-08T14:26:33.546Z,102650.22
2022-08-08T14:29:01.535Z,102650.91
2022-08-08T14:31:36.704Z,102640.88
2022-08-08T14:34:23.239Z,102641.47
2022-08-08T14:36:54.822Z,102653.88
2022-08-08T14:39:24.686Z,102645.78
2022-08-08T14:42:03.250Z,102649.94
2022-08-08T14:44:35.075Z,102638.53
2022-08-08T14:47:20.902Z,102644.16
2022-08-08T14:50:06.263Z,102634.59
2022-08-08T14:52:41.465Z,102645.66
2022-08-08T14:55:10.580Z,102635.03
2022-08-08T14:58:06.517Z,102629.22
2022-08-08T15:00:27.446Z,102632.13
2022-08-08T15:02:58.518Z,102632.38
2022-08-08T15:05:34.033Z,102635.22
2022-08-08T15:08:21.736Z,102628.06
2022-08-08T15:10:49.837Z,102623.25
2022-08-08T15:13:17.390Z,102629.16
2022-08-08T15:16:01.190Z,102617.91
2022-08-08T15:18:30.216Z,102624.44
2022-08-08T15:20:57.042Z,102628.00
2022-08-08T15:23:23.851Z,102621.34
2022-08-08T15:26:00.048Z,102613.38
2022-08-08T15:28:33.848Z,102626.84
2022-08-08T15:31:01.651Z,102630.56
2022-08-08T15:33:38.357Z,102633.47
2022-08-08T15:36:17.681Z,102632.50
2022-08-08T15:38:50.576Z,102619.28
2022-08-08T15:41:17.814Z,102623.06
2022-08-08T15:44:00.853Z,102625.69
2022-08-08T15:46:35.099Z,102630.22
2022-08-08T15:49:04.149Z,102623.28
2022-08-08T15:51:32.715Z,102640.59
2022-08-08T15:54:00.594Z,102643.75
2022-08-08T15:56:27.416Z,102637.25
2022-08-08T15:58:54.265Z,102633.34
2022-08-08T16:01:22.594Z,102638.72
2022-08-08T16:03:51.978Z,102646.66
2022-08-08T16:06:27.725Z,102641.47
2022-08-08T16:13:00.026Z,102647.75
2022-08-08T16:13:12.124Z,102648.16
2022-08-08T16:14:36.191Z,102645.06
2022-08-08T16:17:05.745Z,102652.66
2022-08-08T16:19:59.784Z,102654.00
2022-08-08T16:22:28.717Z,102649.63
2022-08-08T16:24:58.498Z,102652.97
2022-08-08T16:27:25.396Z,102652.16
2022-08-08T16:30:13.667Z,102661.88
2022-08-08T16:32:41.191Z,102659.88
2022-08-08T16:35:08.691Z,102661.16
2022-08-08T16:37:35.922Z,102662.59
2022-08-08T16:40:04.138Z,102666.84
2022-08-08T16:42:31.598Z,102663.47
2022-08-08T16:45:11.164Z,102661.13
2022-08-08T16:47:49.746Z,102670.06
2022-08-08T16:50:20.015Z,102663.19
2022-08-08T16:54:59.758Z,102663.09
2022-08-08T16:55:55.710Z,102664.63
2022-08-08T16:58:26.370Z,102661.16
2022-08-08T17:00:54.797Z,102666.03
2022-08-08T17:03:25.095Z,102669.88
2022-08-08T17:06:36.889Z,102668.75
2022-08-08T17:08:57.371Z,102665.28
2022-08-08T17:11:28.214Z,102661.31
2022-08-08T17:14:05.879Z,102660.66
2022-08-08T17:16:51.902Z,102674.00
2022-08-08T17:19:27.328Z,102681.22
2022-08-08T17:21:54.676Z,102685.81
2022-08-08T17:24:27.897Z,102678.88
2022-08-08T17:26:57.928Z,102686.06
2022-08-08T17:29:27.060Z,102691.53
2022-08-08T17:31:54.064Z,102690.50
2022-08-08T17:34:47.984Z,102688.03
2022-08-08T17:37:11.176Z,102686.59
2022-08-08T17:40:04.028Z,102693.38
2022-08-08T17:42:28.297Z,102684.28
2022-08-08T17:44:55.553Z,102687.00
2022-08-08T17:47:27.676Z,102692.91
2022-08-08T17:50:01.242Z,102695.56
2022-08-08T17:52:35.320Z,102698.19
2022-08-08T17:55:05.710Z,102689.75
2022-08-08T17:57:36.442Z,102692.78
2022-08-08T18:00:13.378Z,102684.47
2022-08-08T18:03:02.132Z,102695.63
2022-08-08T18:05:49.732Z,102688.63
2022-08-08T18:08:37.516Z,102698.88
2022-08-08T18:11:16.306Z,102700.66
2022-08-08T18:13:48.175Z,102708.09
2022-08-08T18:16:20.985Z,102708.16
2022-08-08T18:18:57.651Z,102710.25
2022-08-08T18:21:58.778Z,102708.91
2022-08-08T18:24:21.454Z,102715.38
2022-08-08T18:26:54.541Z,102719.09
2022-08-08T18:29:30.286Z,102726.91
2022-08-08T18:32:08.421Z,102732.34
2022-08-08T18:34:40.361Z,102729.69
2022-08-08T18:37:10.192Z,102734.78
2022-08-08T18:39:45.073Z,102734.78
2022-08-08T18:42:16.467Z,102733.91
2022-08-08T18:44:52.961Z,102746.25
2022-08-08T18:47:25.166Z,102745.69
2022-08-08T18:49:57.795Z,102748.94
2022-08-08T18:52:26.576Z,102751.56
2022-08-08T18:54:59.669Z,102746.00
2022-08-08T18:57:43.461Z,102746.84
2022-08-08T19:00:15.783Z,102752.75
2022-08-08T19:02:48.379Z,102752.22
2022-08-08T19:05:24.535Z,102755.53
2022-08-08T19:07:59.570Z,102751.41
2022-08-08T19:10:27.425Z,102760.09
2022-08-08T19:12:54.248Z,102757.22
2022-08-08T19:15:23.849Z,102762.34
2022-08-08T19:18:32.495Z,102773.31
2022-08-08T19:20:46.461Z,102773.41
2022-08-08T19:23:13.645Z,102771.75
2022-08-08T19:26:19.716Z,102775.69
2022-08-08T19:28:28.698Z,102782.28
2022-08-08T19:31:03.606Z,102785.00
2022-08-08T19:33:39.479Z,102786.63
2022-08-08T19:36:27.448Z,102790.72
2022-08-08T19:38:56.077Z,102797.06
2022-08-08T19:41:31.390Z,102791.00
2022-08-08T19:44:13.147Z,102789.41
2022-08-08T19:46:50.152Z,102788.78
2022-08-08T19:49:17.022Z,102790.53
2022-08-08T19:51:45.532Z,102792.09
2022-08-08T19:54:12.569Z,102799.47
2022-08-08T19:56:41.463Z,102795.53
2022-08-08T19:59:12.963Z,102801.19
2022-08-08T20:02:02.381Z,102799.06
2022-08-08T20:04:28.009Z,102802.00
2022-08-08T20:06:57.098Z,102803.16
2022-08-08T20:09:25.156Z,102806.03
2022-08-08T20:11:56.954Z,102806.25
2022-08-08T20:14:34.352Z,102809.34
2022-08-08T20:17:02.717Z,102809.38
2022-08-08T20:19:33.535Z,102805.59
2022-08-08T20:22:13.046Z,102814.94
2022-08-08T20:24:48.542Z,102818.84
2022-08-08T20:27:19.907Z,102816.22
2022-08-08T20:29:55.894Z,102818.00
2022-08-08T20:32:29.642Z,102817.00
2022-08-08T20:35:00.724Z,102813.91
2022-08-08T20:37:46.960Z,102815.19
2022-08-08T20:40:17.301Z,102815.91
2022-08-08T20:42:54.853Z,102814.72
2022-08-08T20:45:55.069Z,102817.28
2022-08-08T20:48:09.504Z,102820.78
2022-08-08T20:50:36.889Z,102810.53
2022-08-08T20:53:10.864Z,102807.06
2022-08-08T20:55:45.286Z,102805.25
2022-08-08T20:58:23.160Z,102806.66
2022-08-08T21:00:50.725Z,102808.88
2022-08-08T21:03:17.630Z,102805.16
2022-08-08T21:05:49.319Z,102804.72
2022-08-08T21:08:36.860Z,102804.47
2022-08-08T21:11:14.137Z,102806.16
2022-08-08T21:13:43.545Z,102804.84
2022-08-08T21:16:20.315Z,102807.16
2022-08-08T21:18:48.032Z,102808.88
2022-08-08T21:21:19.803Z,102808.78
2022-08-08T21:24:09.308Z,102806.00
2022-08-08T21:26:46.222Z,102811.84
2022-08-08T21:29:20.072Z,102811.59
2022-08-08T21:31:58.537Z,102812.47
2022-08-08T21:34:29.973Z,102811.00
2022-08-08T21:36:58.315Z,102808.06
2022-08-08T21:39:41.411Z,102810.78
2022-08-08T21:42:12.506Z,102810.72
2022-08-08T21:44:58.692Z,102813.50
2022-08-08T21:48:04.362Z,102809.19
2022-08-08T21:50:15.412Z,102804.53
2022-08-08T21:54:35.830Z,102812.00
2022-08-08T21:56:19.856Z,102818.84
2022-08-08T21:58:17.260Z,102816.84
2022-08-08T22:00:44.078Z,102814.91
2022-08-08T22:03:17.518Z,102815.34
2022-08-08T22:05:45.903Z,102819.63
2022-08-08T22:08:15.763Z,102810.22
2022-08-08T22:10:52.261Z,102817.28
2022-08-08T22:13:21.841Z,102821.47
2022-08-08T22:15:59.213Z,102816.03
2022-08-08T22:18:29.690Z,102816.03
2022-08-08T22:21:08.284Z,102823.38
2022-08-08T22:23:50.568Z,102817.69
2022-08-08T22:26:29.877Z,102827.16
2022-08-08T22:29:13.942Z,102824.56
2022-08-08T22:32:01.409Z,102823.91
2022-08-08T22:34:29.927Z,102814.34
2022-08-08T22:36:56.740Z,102828.94
2022-08-08T22:39:23.568Z,102821.66
2022-08-08T22:42:10.104Z,102822.16
2022-08-08T22:44:37.849Z,102825.47
2022-08-08T22:47:17.760Z,102825.97
2022-08-08T22:49:45.205Z,102834.31
2022-08-08T22:52:26.123Z,102832.31
2022-08-08T22:55:05.107Z,102829.88
2022-08-08T22:57:44.462Z,102828.44
2022-08-08T23:00:16.879Z,102829.47
2022-08-08T23:02:50.410Z,102831.06
2022-08-08T23:05:21.414Z,102828.75
2022-08-08T23:07:56.888Z,102826.44
2022-08-08T23:10:25.272Z,102829.88
2022-08-08T23:12:54.266Z,102825.03
2022-08-08T23:16:38.762Z,102830.09
2022-08-08T23:18:11.488Z,102835.31
2022-08-08T23:20:41.214Z,102833.00
2022-08-08T23:23:10.399Z,102838.09
2022-08-08T23:25:48.074Z,102833.91
2022-08-08T23:28:15.787Z,102830.41
2022-08-08T23:30:46.139Z,102838.50
2022-08-08T23:33:19.142Z,102842.31
2022-08-08T23:36:06.683Z,102843.94
2022-08-08T23:38:35.770Z,102843.09
2022-08-08T23:41:12.239Z,102851.53
2022-08-08T23:43:49.439Z,102844.72
2022-08-08T23:49:02.103Z,102844.91
2022-08-08T23:49:18.481Z,102847.22
2022-08-08T23:52:04.486Z,102841.69
2022-08-08T23:54:42.126Z,102844.28
2022-08-08T23:57:26.805Z,102844.97
